createdAt,value
2018-05-06T00:01:31.023Z,9.13
2018-05-06T00:03:58.535Z,9.37
2018-05-06T00:06:26.060Z,7.90
2018-05-06T00:08:53.570Z,11.87
2018-05-06T00:11:21.114Z,10.73
2018-05-06T00:13:48.791Z,13.43
2018-05-06T00:16:16.351Z,10.15
2018-05-06T00:18:43.884Z,10.05
2018-05-06T00:21:12.297Z,10.50
2018-05-06T00:23:39.868Z,9.05
2018-05-06T00:26:07.407Z,9.00
2018-05-06T00:28:34.941Z,10.80
2018-05-06T00:31:02.473Z,9.55
2018-05-06T00:33:30.129Z,9.90
2018-05-06T00:35:57.728Z,9.90
2018-05-06T00:38:25.280Z,11.73
2018-05-06T00:40:52.811Z,9.10
2018-05-06T00:43:20.533Z,10.00
2018-05-06T00:45:48.173Z,11.07
2018-05-06T00:48:15.748Z,9.27
2018-05-06T00:50:43.383Z,10.45
2018-05-06T00:53:11.042Z,11.45
2018-05-06T00:55:39.438Z,12.48
2018-05-06T00:58:07.850Z,10.25
2018-05-06T01:00:35.407Z,10.43
2018-05-06T01:03:02.927Z,10.38
2018-05-06T01:05:31.205Z,12.10
2018-05-06T01:07:58.728Z,9.95
2018-05-06T01:10:26.254Z,12.05
2018-05-06T01:12:53.780Z,8.25
2018-05-06T01:15:21.403Z,9.00
2018-05-06T01:17:48.925Z,8.27
2018-05-06T01:20:16.535Z,12.32
2018-05-06T01:22:44.835Z,9.68
2018-05-06T01:25:12.359Z,11.30
2018-05-06T01:27:39.870Z,14.85
2018-05-06T01:30:07.398Z,10.43
2018-05-06T01:32:35.732Z,9.57
2018-05-06T01:35:03.247Z,11.82
2018-05-06T01:37:31.531Z,9.93
2018-05-06T01:39:59.035Z,9.27
2018-05-06T01:42:26.569Z,13.32
2018-05-06T01:44:54.111Z,12.30
2018-05-06T01:47:21.719Z,17.23
2018-05-06T01:49:50.908Z,9.95
2018-05-06T01:52:18.604Z,9.30
2018-05-06T01:54:46.351Z,13.30
2018-05-06T01:57:14.012Z,13.82
2018-05-06T01:59:41.902Z,13.13
2018-05-06T02:02:10.182Z,9.00
2018-05-06T02:04:38.547Z,11.80
2018-05-06T02:07:06.295Z,9.88
2018-05-06T02:09:34.670Z,12.05
2018-05-06T02:12:02.235Z,12.35
2018-05-06T02:14:29.964Z,10.20
2018-05-06T02:16:57.611Z,10.05
2018-05-06T02:19:25.526Z,10.73
2018-05-06T02:21:53.984Z,11.98
2018-05-06T02:24:21.648Z,10.63
2018-05-06T02:26:49.235Z,10.80
2018-05-06T02:29:16.891Z,9.55
2018-05-06T02:31:44.420Z,11.25
2018-05-06T02:34:12.050Z,10.02
2018-05-06T02:36:39.674Z,11.57
2018-05-06T02:39:07.313Z,12.85
2018-05-06T02:41:34.965Z,11.70
2018-05-06T02:44:03.316Z,13.80
2018-05-06T02:46:31.588Z,11.50
2018-05-06T02:49:00.018Z,12.32
2018-05-06T02:51:27.780Z,10.50
2018-05-06T02:53:56.384Z,9.88
2018-05-06T02:56:24.032Z,9.65
2018-05-06T02:58:51.910Z,15.60
2018-05-06T03:01:20.219Z,13.32
2018-05-06T03:03:48.679Z,15.70
2018-05-06T03:06:16.256Z,12.07
2018-05-06T03:08:44.812Z,13.82
2018-05-06T03:11:12.455Z,11.43
2018-05-06T03:13:40.047Z,10.55
2018-05-06T03:16:07.680Z,12.48
2018-05-06T03:18:35.283Z,15.88
2018-05-06T03:21:04.153Z,12.90
2018-05-06T03:23:32.084Z,11.15
2018-05-06T03:26:00.680Z,12.43
2018-05-06T03:28:28.353Z,12.50
2018-05-06T03:30:56.720Z,15.73
2018-05-06T03:33:24.278Z,12.85
2018-05-06T03:35:51.786Z,13.27
2018-05-06T03:38:20.336Z,12.50
2018-05-06T03:40:48.811Z,14.75
2018-05-06T03:43:17.315Z,12.88
2018-05-06T03:45:45.020Z,12.57
2018-05-06T03:48:12.604Z,11.35
2018-05-06T03:50:40.115Z,12.82
2018-05-06T03:53:08.390Z,14.85
2018-05-06T03:55:36.696Z,13.55
2018-05-06T03:58:16.214Z,17.12
2018-05-06T04:00:44.745Z,17.37
2018-05-06T04:03:13.087Z,16.90
2018-05-06T04:05:40.609Z,11.75
2018-05-06T04:08:08.131Z,15.27
2018-05-06T04:10:35.659Z,13.45
2018-05-06T04:13:03.932Z,14.30
2018-05-06T04:15:32.392Z,15.27
2018-05-06T04:18:01.611Z,14.23
2018-05-06T04:20:29.907Z,19.60
2018-05-06T04:22:57.411Z,13.75
2018-05-06T04:25:24.938Z,14.63
2018-05-06T04:27:52.464Z,13.70
2018-05-06T04:30:20.738Z,12.60
2018-05-06T04:32:49.210Z,14.18
2018-05-06T04:35:16.763Z,17.98
2018-05-06T04:37:44.444Z,23.12
2018-05-06T04:40:12.719Z,13.70
2018-05-06T04:42:41.111Z,12.30
2018-05-06T04:45:08.618Z,12.70
2018-05-06T04:47:36.142Z,11.75
2018-05-06T04:50:03.684Z,14.40
2018-05-06T04:52:31.208Z,14.77
2018-05-06T04:54:58.725Z,14.15
2018-05-06T04:57:26.247Z,12.98
2018-05-06T04:59:54.527Z,20.85
2018-05-06T05:02:22.803Z,12.93
2018-05-06T05:04:51.079Z,16.30
2018-05-06T05:07:20.743Z,12.82
2018-05-06T05:12:22.365Z,13.27
2018-05-06T05:14:50.659Z,12.15
2018-05-06T05:17:18.171Z,13.30
2018-05-06T05:19:45.688Z,15.45
2018-05-06T05:22:13.279Z,16.10
2018-05-06T05:24:41.559Z,12.70
2018-05-06T05:27:09.093Z,14.63
2018-05-06T05:29:36.614Z,12.07
2018-05-06T05:32:04.986Z,15.20
2018-05-06T05:34:32.533Z,11.80
2018-05-06T05:37:00.051Z,13.80
2018-05-06T05:39:27.563Z,13.25
2018-05-06T05:41:55.851Z,13.75
2018-05-06T05:44:23.367Z,11.98
2018-05-06T05:46:50.889Z,15.02
2018-05-06T05:49:18.419Z,13.48
2018-05-06T05:51:46.883Z,12.48
2018-05-06T05:54:15.174Z,11.80
2018-05-06T05:56:43.492Z,13.23
2018-05-06T05:59:11.003Z,11.55
2018-05-06T06:01:39.414Z,15.07
2018-05-06T06:04:06.973Z,13.13
2018-05-06T06:06:34.483Z,11.88
2018-05-06T06:09:02.007Z,11.15
2018-05-06T06:11:29.533Z,12.37
2018-05-06T06:13:57.878Z,14.73
2018-05-06T06:16:25.389Z,12.15
2018-05-06T06:18:52.902Z,11.05
2018-05-06T06:21:21.219Z,12.10
2018-05-06T06:23:48.727Z,12.27
2018-05-06T06:26:17.584Z,13.77
2018-05-06T06:28:45.167Z,13.43
2018-05-06T06:31:12.908Z,12.02
2018-05-06T06:33:40.454Z,14.93
2018-05-06T06:36:08.079Z,14.07
2018-05-06T06:38:36.781Z,12.95
2018-05-06T06:41:04.364Z,12.50
2018-05-06T06:43:32.537Z,9.63
2018-05-06T06:46:00.159Z,12.40
2018-05-06T06:48:28.446Z,12.52
2018-05-06T06:50:56.720Z,13.30
2018-05-06T06:53:25.211Z,11.60
2018-05-06T06:55:52.791Z,17.10
2018-05-06T06:58:20.361Z,11.40
2018-05-06T07:00:47.909Z,10.15
2018-05-06T07:03:15.437Z,12.00
2018-05-06T07:05:43.130Z,9.80
2018-05-06T07:08:11.590Z,10.18
2018-05-06T07:10:39.890Z,11.77
2018-05-06T07:13:07.640Z,9.77
2018-05-06T07:15:35.182Z,12.73
2018-05-06T07:18:02.716Z,10.90
2018-05-06T07:20:30.646Z,9.80
2018-05-06T07:22:58.269Z,9.77
2018-05-06T07:25:25.943Z,10.13
2018-05-06T07:27:56.681Z,10.00
2018-05-06T07:30:25.875Z,10.53
2018-05-06T07:33:00.318Z,9.87
2018-05-06T07:35:29.404Z,11.30
2018-05-06T07:37:58.207Z,9.40
2018-05-06T07:40:27.228Z,9.63
2018-05-06T07:42:55.089Z,9.90
2018-05-06T07:45:23.679Z,8.60
2018-05-06T07:47:58.813Z,7.67
2018-05-06T07:50:26.434Z,8.80
2018-05-06T07:53:04.077Z,10.37
2018-05-06T07:55:34.542Z,8.40
2018-05-06T07:58:02.219Z,8.00
2018-05-06T08:00:35.112Z,8.57
2018-05-06T08:03:08.581Z,9.93
2018-05-06T08:05:40.084Z,11.50
2018-05-06T08:08:07.928Z,13.17
2018-05-06T08:10:36.483Z,9.87
2018-05-06T08:13:04.100Z,13.07
2018-05-06T08:15:31.614Z,10.43
2018-05-06T08:17:59.892Z,8.20
2018-05-06T08:20:28.167Z,7.03
2018-05-06T08:22:56.463Z,6.30
2018-05-06T08:25:26.031Z,7.43
2018-05-06T08:27:55.330Z,9.07
2018-05-06T08:30:23.059Z,6.30
2018-05-06T08:32:51.539Z,10.33
2018-05-06T08:35:19.223Z,6.53
2018-05-06T08:37:46.978Z,6.60
2018-05-06T08:40:14.872Z,8.10
2018-05-06T08:42:42.676Z,5.90
2018-05-06T08:45:11.490Z,8.80
2018-05-06T08:47:42.492Z,5.83
2018-05-06T08:50:11.231Z,6.33
2018-05-06T08:52:40.114Z,6.13
2018-05-06T08:55:08.970Z,6.20
2018-05-06T08:57:37.479Z,7.40
2018-05-06T09:00:05.460Z,7.40
2018-05-06T09:02:33.223Z,6.90
2018-05-06T09:05:01.318Z,5.67
2018-05-06T09:07:29.895Z,8.73
2018-05-06T09:09:59.233Z,5.40
2018-05-06T09:12:30.078Z,5.70
2018-05-06T09:14:58.561Z,5.63
2018-05-06T09:17:26.322Z,6.90
2018-05-06T09:19:54.304Z,11.83
2018-05-06T09:22:23.076Z,7.30
2018-05-06T09:24:52.033Z,5.40
2018-05-06T09:27:19.741Z,9.47
2018-05-06T09:29:48.160Z,7.37
2018-05-06T09:32:16.610Z,5.73
2018-05-06T09:34:45.020Z,6.40
2018-05-06T09:37:13.405Z,10.80
2018-05-06T09:39:41.696Z,8.43
2018-05-06T09:42:09.315Z,6.70
2018-05-06T09:44:37.311Z,5.73
2018-05-06T09:47:05.326Z,4.83
2018-05-06T09:49:33.501Z,8.27
2018-05-06T09:52:01.633Z,5.40
2018-05-06T09:54:29.397Z,5.63
2018-05-06T09:56:58.623Z,6.23
2018-05-06T09:59:27.485Z,8.13
2018-05-06T10:01:56.309Z,6.53
2018-05-06T10:04:24.201Z,7.67
2018-05-06T10:06:51.999Z,6.70
2018-05-06T10:09:19.770Z,7.57
2018-05-06T10:11:47.489Z,7.80
2018-05-06T10:14:15.234Z,7.90
2018-05-06T10:16:44.021Z,5.80
2018-05-06T10:19:12.908Z,6.93
2018-05-06T10:21:41.320Z,8.20
2018-05-06T10:24:08.905Z,6.73
2018-05-06T10:26:36.592Z,6.33
2018-05-06T10:29:04.369Z,7.53
2018-05-06T10:31:32.916Z,4.63
2018-05-06T10:34:00.507Z,8.30
2018-05-06T10:36:28.139Z,8.07
2018-05-06T10:38:55.711Z,5.33
2018-05-06T10:41:23.373Z,5.53
2018-05-06T10:43:51.035Z,5.73
2018-05-06T10:46:19.437Z,7.23
2018-05-06T10:48:47.031Z,6.13
2018-05-06T10:51:14.668Z,5.97
2018-05-06T10:53:42.956Z,6.33
2018-05-06T10:56:11.366Z,6.30
2018-05-06T10:58:39.049Z,5.07
2018-05-06T11:01:06.642Z,5.00
2018-05-06T11:03:34.285Z,8.50
2018-05-06T11:06:01.946Z,5.97
2018-05-06T11:08:29.463Z,7.33
2018-05-06T11:10:57.024Z,5.23
2018-05-06T11:13:24.625Z,5.70
2018-05-06T11:15:52.318Z,5.53
2018-05-06T11:18:19.920Z,5.63
2018-05-06T11:20:47.545Z,6.57
2018-05-06T11:23:15.216Z,9.93
2018-05-06T11:25:42.852Z,5.73
2018-05-06T11:28:10.498Z,5.87
2018-05-06T11:30:38.179Z,11.87
2018-05-06T11:33:05.811Z,7.63
2018-05-06T11:35:33.530Z,6.77
2018-05-06T11:38:01.273Z,7.93
2018-05-06T11:40:29.559Z,5.77
2018-05-06T11:42:57.206Z,9.53
2018-05-06T11:45:24.987Z,6.90
2018-05-06T11:47:52.521Z,9.13
2018-05-06T11:50:20.037Z,5.90
2018-05-06T11:52:47.593Z,8.30
2018-05-06T11:55:15.322Z,5.43
2018-05-06T11:57:43.692Z,6.50
2018-05-06T12:00:11.412Z,5.17
2018-05-06T12:02:38.915Z,7.27
2018-05-06T12:05:06.485Z,4.43
2018-05-06T12:07:34.772Z,4.90
2018-05-06T12:10:02.419Z,4.67
2018-05-06T12:12:29.858Z,5.23
2018-05-06T12:14:57.387Z,5.10
2018-05-06T12:17:24.951Z,6.07
2018-05-06T12:19:52.452Z,4.23
2018-05-06T12:22:20.750Z,5.57
2018-05-06T12:24:48.242Z,5.40
2018-05-06T12:27:15.750Z,5.90
2018-05-06T12:29:43.296Z,4.60
2018-05-06T12:32:10.799Z,8.87
2018-05-06T12:34:38.996Z,7.40
2018-05-06T12:37:06.809Z,9.17
2018-05-06T12:39:34.322Z,5.27
2018-05-06T12:42:01.818Z,4.43
2018-05-06T12:44:29.343Z,7.60
2018-05-06T12:46:56.832Z,8.23
2018-05-06T12:49:24.632Z,5.67
2018-05-06T12:51:52.176Z,11.10
2018-05-06T12:54:20.442Z,4.27
2018-05-06T12:56:48.710Z,4.50
2018-05-06T12:59:16.391Z,7.90
2018-05-06T13:01:44.755Z,7.93
2018-05-06T13:04:12.743Z,4.53
2018-05-06T13:06:40.314Z,5.73
2018-05-06T13:09:08.009Z,5.27
2018-05-06T13:11:35.712Z,7.40
2018-05-06T13:14:03.436Z,9.10
2018-05-06T13:16:31.345Z,7.03
2018-05-06T13:18:59.070Z,7.30
2018-05-06T13:21:26.604Z,7.20
2018-05-06T13:23:54.155Z,6.97
2018-05-06T13:26:21.643Z,5.77
2018-05-06T13:28:49.173Z,5.17
2018-05-06T13:31:16.808Z,5.77
2018-05-06T13:33:44.546Z,5.70
2018-05-06T13:36:12.117Z,6.40
2018-05-06T13:38:39.621Z,5.20
2018-05-06T13:41:07.336Z,11.20
2018-05-06T13:43:35.070Z,10.70
2018-05-06T13:46:02.783Z,4.87
2018-05-06T13:48:30.550Z,8.17
2018-05-06T13:50:58.417Z,5.60
2018-05-06T13:53:26.867Z,9.77
2018-05-06T13:55:55.349Z,8.80
2018-05-06T13:58:25.827Z,4.60
2018-05-06T14:00:58.187Z,5.47
2018-05-06T14:03:25.966Z,12.00
2018-05-06T14:05:54.059Z,5.03
2018-05-06T14:08:25.892Z,4.83
2018-05-06T14:10:57.096Z,4.83
2018-05-06T14:13:26.910Z,3.77
2018-05-06T14:15:55.371Z,3.93
2018-05-06T14:18:23.057Z,5.90
2018-05-06T14:20:50.747Z,7.57
2018-05-06T14:23:18.469Z,5.30
2018-05-06T14:25:46.141Z,10.23
2018-05-06T14:28:13.779Z,9.60
2018-05-06T14:30:41.599Z,4.43
2018-05-06T14:33:10.008Z,4.40
2018-05-06T14:35:37.607Z,4.90
2018-05-06T14:38:05.306Z,8.53
2018-05-06T14:40:33.581Z,4.73
2018-05-06T14:43:01.142Z,9.40
2018-05-06T14:45:28.731Z,3.37
2018-05-06T14:48:08.363Z,4.87
2018-05-06T14:50:36.008Z,6.37
2018-05-06T14:53:03.667Z,6.30
2018-05-06T14:55:32.095Z,12.03
2018-05-06T14:57:59.680Z,4.40
2018-05-06T15:00:27.203Z,8.67
2018-05-06T15:02:54.773Z,4.20
2018-05-06T15:05:22.538Z,3.73
2018-05-06T15:07:50.079Z,4.93
2018-05-06T15:10:17.652Z,10.10
2018-05-06T15:12:45.381Z,8.73
2018-05-06T15:15:12.990Z,9.17
2018-05-06T15:17:40.498Z,7.03
2018-05-06T15:20:08.110Z,6.40
2018-05-06T15:22:35.772Z,7.07
2018-05-06T15:25:03.285Z,6.60
2018-05-06T15:27:30.870Z,4.60
2018-05-06T15:29:58.472Z,6.07
2018-05-06T15:32:26.123Z,11.10
2018-05-06T15:34:53.784Z,6.80
2018-05-06T15:37:21.936Z,10.87
2018-05-06T15:39:49.593Z,6.50
2018-05-06T15:42:17.218Z,3.97
2018-05-06T15:44:44.927Z,3.93
2018-05-06T15:47:13.273Z,5.10
2018-05-06T15:49:40.889Z,9.60
2018-05-06T15:52:08.563Z,5.30
2018-05-06T15:54:37.096Z,7.40
2018-05-06T15:57:05.460Z,3.60
2018-05-06T15:59:33.073Z,5.63
2018-05-06T16:02:12.815Z,5.13
2018-05-06T16:04:40.388Z,3.90
2018-05-06T16:07:08.115Z,11.53
2018-05-06T16:09:35.785Z,13.60
2018-05-06T16:12:03.524Z,8.07
2018-05-06T16:14:31.859Z,5.13
2018-05-06T16:16:59.413Z,4.53
2018-05-06T16:19:26.955Z,10.73
2018-05-06T16:21:54.760Z,15.60
2018-05-06T16:24:22.675Z,8.73
2018-05-06T16:26:50.261Z,4.50
2018-05-06T16:29:17.826Z,6.77
2018-05-06T16:31:45.814Z,5.70
2018-05-06T16:34:13.487Z,9.43
2018-05-06T16:36:41.283Z,14.43
2018-05-06T16:39:08.840Z,7.57
2018-05-06T16:41:36.394Z,10.67
2018-05-06T16:44:04.033Z,5.47
2018-05-06T16:46:31.594Z,6.63
2018-05-06T16:48:59.965Z,7.03
2018-05-06T16:51:27.540Z,6.47
2018-05-06T16:53:56.064Z,4.70
2018-05-06T16:56:24.399Z,4.17
2018-05-06T16:58:53.825Z,3.70
2018-05-06T17:01:21.367Z,8.43
2018-05-06T17:03:49.124Z,7.73
2018-05-06T17:06:17.701Z,14.20
2018-05-06T17:08:46.117Z,7.73
2018-05-06T17:11:13.753Z,6.70
2018-05-06T17:13:42.228Z,4.10
2018-05-06T17:16:12.570Z,8.17
2018-05-06T17:18:40.519Z,3.07
2018-05-06T17:21:08.188Z,7.07
2018-05-06T17:23:35.788Z,10.90
2018-05-06T17:26:03.304Z,8.97
2018-05-06T17:28:32.496Z,10.33
2018-05-06T17:31:00.950Z,3.07
2018-05-06T17:33:29.721Z,6.20
2018-05-06T17:35:57.773Z,11.03
2018-05-06T17:38:25.514Z,6.50
2018-05-06T17:40:54.904Z,11.43
2018-05-06T17:43:24.022Z,2.90
2018-05-06T17:45:51.980Z,7.60
2018-05-06T17:48:22.134Z,7.00
2018-05-06T17:50:51.331Z,7.10
2018-05-06T17:53:19.176Z,8.23
2018-05-06T17:55:50.025Z,3.13
2018-05-06T17:58:19.699Z,6.50
2018-05-06T18:00:49.863Z,7.23
2018-05-06T18:03:18.794Z,5.85
2018-05-06T18:05:46.448Z,7.87
2018-05-06T18:08:14.169Z,8.60
2018-05-06T18:10:47.349Z,3.77
2018-05-06T18:13:16.963Z,3.65
2018-05-06T18:15:50.411Z,5.40
2018-05-06T18:18:19.637Z,5.50
2018-05-06T18:20:48.095Z,1.90
2018-05-06T18:23:15.719Z,7.20
2018-05-06T18:25:47.192Z,5.97
2018-05-06T18:28:16.406Z,4.73
2018-05-06T18:30:44.696Z,3.70
2018-05-06T18:33:13.333Z,5.57
2018-05-06T18:35:41.127Z,4.10
2018-05-06T18:38:09.676Z,4.47
2018-05-06T18:40:39.112Z,11.47
2018-05-06T18:43:06.783Z,4.77
2018-05-06T18:45:34.414Z,6.83
2018-05-06T18:48:02.997Z,4.50
2018-05-06T18:50:30.576Z,6.93
2018-05-06T18:53:06.212Z,3.40
2018-05-06T18:55:33.936Z,6.17
2018-05-06T18:58:03.054Z,7.40
2018-05-06T19:00:31.455Z,8.30
2018-05-06T19:03:00.134Z,6.40
2018-05-06T19:05:27.880Z,6.97
2018-05-06T19:08:00.625Z,8.33
2018-05-06T19:10:29.218Z,6.50
2018-05-06T19:12:58.134Z,3.43
2018-05-06T19:15:27.193Z,3.53
2018-05-06T19:18:00.122Z,6.37
2018-05-06T19:20:30.650Z,4.87
2018-05-06T19:22:58.795Z,5.73
2018-05-06T19:25:26.564Z,4.57
2018-05-06T19:27:55.256Z,5.00
2018-05-06T19:30:22.939Z,2.30
2018-05-06T19:32:52.379Z,4.63
2018-05-06T19:35:20.114Z,3.67
2018-05-06T19:37:47.724Z,7.20
2018-05-06T19:40:16.413Z,10.83
2018-05-06T19:42:45.957Z,4.90
2018-05-06T19:45:14.772Z,3.50
2018-05-06T19:47:43.325Z,3.10
2018-05-06T19:50:12.721Z,3.90
2018-05-06T19:52:41.728Z,6.57
2018-05-06T19:55:11.014Z,5.10
2018-05-06T19:57:41.031Z,5.77
2018-05-06T20:00:08.577Z,6.30
2018-05-06T20:02:36.331Z,4.40
2018-05-06T20:05:04.644Z,6.90
2018-05-06T20:07:33.897Z,4.90
2018-05-06T20:10:03.054Z,3.53
2018-05-06T20:12:30.845Z,4.53
2018-05-06T20:14:58.958Z,2.97
2018-05-06T20:17:27.236Z,3.03
2018-05-06T20:19:54.749Z,7.10
2018-05-06T20:22:22.342Z,12.73
2018-05-06T20:24:51.412Z,6.70
2018-05-06T20:27:20.911Z,3.03
2018-05-06T20:29:49.223Z,4.17
2018-05-06T20:32:16.916Z,5.77
2018-05-06T20:34:44.477Z,2.43
2018-05-06T20:37:12.122Z,2.77
2018-05-06T20:39:39.766Z,3.33
2018-05-06T20:42:07.416Z,3.40
2018-05-06T20:44:35.787Z,2.70
2018-05-06T20:47:03.479Z,3.03
2018-05-06T20:49:31.140Z,3.33
2018-05-06T20:51:58.744Z,4.13
2018-05-06T20:54:26.432Z,2.70
2018-05-06T20:56:54.125Z,3.23
2018-05-06T20:59:21.707Z,3.43
2018-05-06T21:01:49.404Z,3.50
2018-05-06T21:04:16.996Z,5.50
2018-05-06T21:06:45.497Z,3.07
2018-05-06T21:09:13.156Z,3.10
2018-05-06T21:11:40.762Z,2.97
2018-05-06T21:14:08.291Z,3.70
2018-05-06T21:16:35.973Z,3.70
2018-05-06T21:19:03.718Z,3.17
2018-05-06T21:21:32.401Z,2.83
2018-05-06T21:24:00.999Z,5.73
2018-05-06T21:26:28.695Z,6.53
2018-05-06T21:28:56.245Z,4.57
2018-05-06T21:31:24.100Z,3.97
2018-05-06T21:33:51.743Z,5.73
2018-05-06T21:36:19.481Z,2.97
2018-05-06T21:38:47.023Z,13.30
2018-05-06T21:41:14.640Z,5.73
2018-05-06T21:43:42.260Z,3.10
2018-05-06T21:46:10.682Z,5.17
2018-05-06T21:48:38.578Z,4.00
2018-05-06T21:51:06.531Z,3.80
2018-05-06T21:53:34.358Z,3.60
2018-05-06T21:56:02.022Z,4.97
2018-05-06T21:58:29.689Z,7.00
2018-05-06T22:00:57.429Z,3.70
2018-05-06T22:03:25.060Z,3.90
2018-05-06T22:05:52.800Z,3.63
2018-05-06T22:08:20.375Z,5.00
2018-05-06T22:10:48.224Z,3.47
2018-05-06T22:13:15.739Z,4.07
2018-05-06T22:15:45.041Z,3.60
2018-05-06T22:18:13.412Z,4.10
2018-05-06T22:20:40.982Z,3.60
2018-05-06T22:23:09.305Z,3.77
2018-05-06T22:25:36.847Z,3.60
2018-05-06T22:28:04.623Z,4.33
2018-05-06T22:30:32.222Z,3.53
2018-05-06T22:33:00.011Z,8.00
2018-05-06T22:35:28.329Z,5.60
2018-05-06T22:37:56.779Z,5.23
2018-05-06T22:40:24.647Z,3.60
2018-05-06T22:42:52.496Z,4.80
2018-05-06T22:45:20.131Z,6.03
2018-05-06T22:47:47.911Z,4.00
2018-05-06T22:50:15.712Z,3.20
2018-05-06T22:52:44.362Z,4.40
2018-05-06T22:55:12.152Z,3.57
2018-05-06T22:57:39.818Z,4.60
2018-05-06T23:00:07.534Z,3.47
2018-05-06T23:02:35.232Z,6.00
2018-05-06T23:05:03.004Z,4.70
2018-05-06T23:07:30.687Z,6.47
2018-05-06T23:09:58.493Z,5.03
2018-05-06T23:12:26.140Z,4.50
2018-05-06T23:14:53.893Z,4.37
2018-05-06T23:17:21.630Z,4.80
2018-05-06T23:19:49.249Z,4.50
2018-05-06T23:22:16.824Z,5.07
2018-05-06T23:24:44.491Z,4.40
2018-05-06T23:27:12.193Z,4.20
2018-05-06T23:29:40.521Z,6.70
2018-05-06T23:32:08.144Z,4.00
2018-05-06T23:34:35.764Z,3.60
2018-05-06T23:37:03.538Z,4.10
2018-05-06T23:39:31.059Z,5.77
2018-05-06T23:41:58.590Z,4.60
2018-05-06T23:44:26.135Z,3.63
2018-05-06T23:46:53.637Z,4.40
2018-05-06T23:49:22.064Z,5.63
2018-05-06T23:51:50.483Z,4.30
2018-05-06T23:54:18.889Z,4.90
2018-05-06T23:56:46.465Z,4.33
2018-05-06T23:59:14.897Z,6.70
